• Join FlightAware (Why Join?)
  • Login
  • US Flag 
01:55AM EDT


 

Airport Tracker/Info


-or-


 

Live Flight TrackerFlight Track Log ✈ DAL6035 ✈ 11-Apr-2013 ✈ KMHT - KLGA

Flight Track Log - Related Links

Times and Time Zones

All times are in EDT time to prevent confusion due to time zone crossing. See the DAL6035 flight status page for this flight to view local times or setup timezone preferences in your user account.

Time Position Orientation Groundspeed Altitude Reporting Facility
EDT Latitude Longitude Course Direction KTS MPH feet Rate Location/Type
01:34PM 42.9500 -71.4333 322° Northwest 153 176 1,000  Level KA90
01:35PM 43.0092 -71.4975 322° Northwest 194 223 3,800 2,100 Climbing Boston Center
01:36PM 43.0389 -71.5681 300° West 223 257 6,500 3,000 Climbing Boston Center
01:37PM 43.0125 -71.6536 218° Southwest 206 237 10,000 2,520 Climbing Boston Center
01:38PM 42.9621 -71.6499 218° Southwest  Level Estimated
01:38PM 42.9733 -71.7022 222° Southwest 200 230 11,500  Level Boston Center
01:39PM 42.9175 -71.7767 224° Southwest 241 277 12,800 1,260 Climbing Boston Center
01:40PM 42.8656 -71.8425 223° Southwest 276 318 14,100 1,320 Climbing Boston Center
01:41PM 42.8014 -71.9222 222° Southwest 287 330 15,500 420 Climbing Boston Center
01:43PM 42.7218 -72.0019 216° Southwest  Level Estimated
01:44PM 42.6125 -72.1581 216° Southwest 323 372 16,000  Level Boston Center
01:45PM 42.5400 -72.2486 223° Southwest 328 377 16,000  Level Boston Center
01:46PM 42.4775 -72.3303 224° Southwest 328 377 16,000  Level Boston Center
01:47PM 42.4025 -72.4203 222° Southwest 333 383 16,000  Level Boston Center
01:48PM 42.3336 -72.5075 223° Southwest 339 390 16,000  Level Boston Center
01:49PM 42.2731 -72.5803 222° Southwest 339 390 16,000  Level Boston Center
01:50PM 42.2630 -72.4563 216° Southwest  Level Estimated
01:51PM 42.1981 -72.6700 222° Southwest 313 360 16,000  Level Boston Center
01:51PM 42.1519 -72.7425 229° Southwest 271 312 16,000  Level Boston Center
01:52PM 42.1100 -72.8319 238° Southwest 258 297 16,000  Level Boston Center
01:54PM 42.0786 -72.9072 241° Southwest 263 303 16,000  Level Boston Center
01:55PM 42.0386 -72.9992 240° Southwest 268 308 16,000  Level Boston Center
01:55PM 42.0069 -73.0742 240° Southwest 262 302 16,000  Level Boston Center
01:56PM 41.9667 -73.1606 238° Southwest 262 302 16,000  Level Boston Center
01:57PM 41.9328 -73.2383 240° Southwest 262 302 16,000  Level Boston Center
01:59PM 41.8925 -73.3297 239° Southwest 267 307 16,000  Level Boston Center
01:59PM 41.8522 -73.4100 236° Southwest 272 313 16,000  Level Boston Center
02:00PM 41.8142 -73.4931 238° Southwest 272 313 16,000  Level Boston Center
02:01PM 41.7819 -73.5675 240° Southwest 257 296 16,000  Level Boston Center
02:02PM 41.7500 -73.6422 240° Southwest 242 278 16,000 -420 Level Boston Center
02:04PM 41.7139 -73.7167 237° Southwest 237 273 15,200 -960 Descending Boston Center
02:04PM 41.6775 -73.7936 238° Southwest 242 278 14,200 -660 Descending Boston Center
02:05PM 41.6208 -73.8314 206° Southwest 232 267 14,000 -120 Descending Boston Center
02:06PM 41.5539 -73.8519 193° South 237 273 14,000  Level Boston Center
02:07PM 41.4911 -73.8700 192° South 250 288 14,000  Level Boston Center
02:08PM 41.4178 -73.8878 190° South 256 295 14,000  Level Boston Center
02:09PM 41.3881 -73.9425 234° Southwest 209 241 14,000  Level Boston Center
02:10PM 41.4206 -74.0069 304° West 178 205 14,000  Level Boston Center
02:12PM 41.4850 -74.0003 North 178 205 14,000  Level Boston Center
02:13PM 41.5667 -73.9828 North 242 278 14,000  Level Boston Center
02:14PM 41.6314 -73.9650 12° North 263 303 14,000  Level Boston Center
02:14PM 41.6433 -73.8625 81° East 222 255 14,000  Level Boston Center
02:15PM 41.5831 -73.8528 173° South 169 194 14,000  Level Boston Center
02:16PM 41.5139 -73.8678 189° South 208 239 14,000  Level Boston Center
02:17PM 41.4556 -73.8775 187° South 231 266 14,000  Level Boston Center
02:18PM 41.3967 -73.9122 204° Southwest 226 260 14,000  Level Boston Center
02:19PM 41.3958 -73.9786 269° West 191 220 14,000  Level Boston Center
02:20PM 41.4581 -74.0050 342° North 193 222 14,000 -600 Level Boston Center
02:22PM 41.5189 -73.9678 25° Northeast 260 299 12,900 -1,680 Descending Boston Center
02:22PM 41.4833 -73.8833 119° Southeast 285 328 10,800 -1,800 Descending New York TRACON
02:23PM 41.4167 -73.8333 151° Southeast 283 326 9,400 -960 Descending New York TRACON
02:24PM 41.3500 -73.8000 159° South 293 337 8,900 -960 Descending New York TRACON
02:25PM 41.2833 -73.7333 143° Southeast 293 337 7,500 -1,440 Descending New York TRACON
02:26PM 41.2167 -73.7000 159° South 254 292 6,100 -1,380 Descending New York TRACON
02:27PM 41.1500 -73.7333 201° Southwest 245 282 4,800 -1,020 Descending New York TRACON
02:28PM 41.0833 -73.7500 191° South 255 293 4,100 -420 Descending New York TRACON
02:29PM 41.0167 -73.7833 201° Southwest 253 291 4,100  Level New York TRACON
02:30PM 40.9500 -73.8333 210° Southwest 249 287 4,100  Level New York TRACON
02:31PM 40.9000 -73.8667 207° Southwest 251 289 4,100  Level New York TRACON
02:32PM 40.8333 -73.9167 210° Southwest 245 282 4,100  Level New York TRACON